Time;durP1;ratioP1;P1;durP2;ratioP2;P2;SDS_P1;SDS_P2;PMS_P1;PMS_P2;Temp;Humidity;BMP_temperature;BMP_pressure;BME280_temperature;BME280_humidity;BME280_pressure;Samples;Min_cycle;Max_cycle;Signal;HPM_P1;HPM_P2
2022/03/22 00:02:58;;;;;;;136.77;53.03;;;;;;;-1.18;48.62;101151.42;3967423;87;21382;-82
2022/03/22 00:09:00;;;;;;;113.33;47.43;;;;;;;-1.27;48.40;101143.50;3997897;87;21477;-82
2022/03/22 00:15:06;;;;;;;115.60;46.30;;;;;;;-1.50;48.56;101144.20;3998985;87;21498;-82
2022/03/22 00:21:07;;;;;;;131.47;53.60;;;;;;;-1.61;48.73;101154.76;3996644;87;21101;-82
2022/03/22 00:27:10;;;;;;;116.57;48.23;;;;;;;-1.73;49.03;101147.83;3996700;87;21100;-82
2022/03/22 00:33:11;;;;;;;107.73;44.80;;;;;;;-1.84;49.80;101146.85;3997503;87;21052;-81
2022/03/22 00:39:12;;;;;;;95.87;42.57;;;;;;;-1.83;49.81;101155.18;3994550;87;21593;-82
2022/03/22 00:45:16;;;;;;;93.53;38.23;;;;;;;-1.95;49.79;101152.27;4018286;86;21064;-82
2022/03/22 00:51:20;;;;;;;100.70;41.40;;;;;;;-2.04;50.96;101147.83;4056961;86;21076;-83
2022/03/22 00:57:27;;;;;;;98.30;42.07;;;;;;;-1.94;50.76;101148.00;4056144;86;20993;-82
2022/03/22 01:03:38;;;;;;;72.53;35.40;;;;;;;-2.00;51.05;101144.94;4059422;86;21071;-82
2022/03/22 01:09:40;;;;;;;80.50;37.53;;;;;;;-1.93;51.74;101146.14;4054180;86;21531;-82
2022/03/22 01:15:42;;;;;;;93.30;37.90;;;;;;;-1.90;52.06;101148.34;4055962;86;21517;-82
2022/03/22 01:21:51;;;;;;;103.83;46.60;;;;;;;-1.88;51.63;101138.97;4055988;86;21512;-82
2022/03/22 01:27:58;;;;;;;114.87;46.57;;;;;;;-2.07;51.80;101138.89;4034950;86;21104;-81
2022/03/22 01:34:04;;;;;;;113.40;48.07;;;;;;;-2.28;51.93;101130.19;4055189;86;21061;-81
2022/03/22 01:40:10;;;;;;;112.70;46.80;;;;;;;-2.33;51.97;101126.58;4053908;86;21591;-81
2022/03/22 01:46:13;;;;;;;106.72;46.45;;;;;;;-2.42;52.68;101135.55;4050686;86;21400;-82
2022/03/22 01:52:19;;;;;;;94.47;41.57;;;;;;;-2.41;52.58;101133.15;4054136;85;21662;-81
2022/03/22 01:58:21;;;;;;;113.68;44.98;;;;;;;-2.46;53.56;101134.38;4050102;86;21060;-81
2022/03/22 02:10:51;;;;;;;105.73;46.63;;;;;;;-2.48;53.24;101120.42;4053886;86;21041;-81
2022/03/22 02:16:52;;;;;;;105.17;46.33;;;;;;;-2.59;53.57;101125.80;4052571;86;21036;-81
2022/03/22 02:23:51;;;;;;;109.43;46.33;;;;;;;-2.66;54.03;101124.59;4054401;86;21044;-81
2022/03/22 02:29:53;;;;;;;85.50;40.43;;;;;;;-2.72;53.77;101118.84;4052267;86;21580;-82
2022/03/22 02:35:54;;;;;;;93.17;40.17;;;;;;;-2.69;54.66;101122.39;4048994;86;21373;-81
2022/03/22 02:49:04;;;;;;;93.97;39.73;;;;;;;-2.70;54.46;101122.63;4011151;86;21062;-82
2022/03/22 02:55:10;;;;;;;106.83;46.70;;;;;;;-3.02;55.57;101134.82;3994469;87;21080;-81
2022/03/22 03:01:11;;;;;;;;;;;;;;;-3.07;55.55;101132.84;3998760;87;21041;-82
2022/03/22 03:07:13;;;;;;;107.63;42.70;;;;;;;-3.27;56.00;101131.02;3993894;87;20782;-82
2022/03/22 03:14:38;;;;;;;95.47;39.90;;;;;;;-3.34;56.15;101139.20;3996966;87;21522;-81
2022/03/22 03:20:04;;;;;;;99.47;42.30;;;;;;;-3.40;56.70;101143.33;3991765;87;21073;-81
2022/03/22 03:26:16;;;;;;;81.63;35.47;;;;;;;-3.43;57.00;101149.94;3992156;87;21124;-82
2022/03/22 03:32:17;;;;;;;127.20;49.40;;;;;;;-3.35;55.79;101149.59;3997042;87;21097;-82
2022/03/22 04:05:15;;;;;;;133.97;53.70;;;;;;;-3.87;57.91;101150.98;4042427;86;21596;-81
2022/03/22 04:11:16;;;;;;;105.73;46.17;;;;;;;-3.86;58.18;101149.41;4027143;86;21140;-82
2022/03/22 04:24:29;;;;;;;110.67;48.13;;;;;;;-4.01;58.07;101162.92;4043285;86;21076;-83
2022/03/22 04:44:01;;;;;;;93.63;41.40;;;;;;;-4.27;60.14;101172.63;4045062;86;20140;-81
2022/03/22 04:50:26;;;;;;;85.27;36.67;;;;;;;-4.27;59.23;101181.47;4045579;86;21773;-81
2022/03/22 05:03:33;;;;;;;87.00;36.60;;;;;;;-4.36;59.66;101179.33;4039937;86;21151;-82
2022/03/22 05:09:48;;;;;;;77.23;36.23;;;;;;;-4.37;60.26;101180.38;4066750;86;21067;-81
2022/03/22 05:16:46;;;;;;;95.67;37.27;;;;;;;-4.23;60.47;101170.64;4068638;86;21136;-81
2022/03/22 05:23:11;;;;;;;82.63;33.93;;;;;;;-4.24;60.10;101186.37;4076630;86;21049;-81
2022/03/22 05:29:14;;;;;;;75.70;32.97;;;;;;;-4.14;61.39;101185.83;4071625;86;21600;-81
2022/03/22 05:35:21;;;;;;;89.30;38.17;;;;;;;-3.77;61.82;101185.50;4072229;86;21049;-81
2022/03/22 05:41:32;;;;;;;129.83;46.60;;;;;;;-3.33;61.61;101185.01;4072132;86;21083;-81
2022/03/22 05:48:11;;;;;;;120.20;48.83;;;;;;;-2.95;61.16;101187.23;4067898;86;21048;-81
2022/03/22 05:54:51;;;;;;;116.97;49.13;;;;;;;-2.73;61.28;101184.77;4066981;85;29203;-81
2022/03/22 06:00:56;;;;;;;120.63;50.77;;;;;;;-2.63;59.64;101196.52;4110932;85;21063;-81
2022/03/22 06:06:58;;;;;;;136.13;56.90;;;;;;;-2.31;61.06;101197.73;4109899;85;21059;-81
2022/03/22 06:13:18;;;;;;;156.13;61.67;;;;;;;-1.69;61.42;101199.98;4108509;85;21059;-81
2022/03/22 06:19:19;;;;;;;134.90;58.40;;;;;;;-0.80;60.44;101205.20;4109624;85;21047;-81
2022/03/22 06:25:27;;;;;;;125.67;54.87;;;;;;;-0.19;59.98;101205.49;4111566;85;21050;-81
2022/03/22 06:31:33;;;;;;;120.77;49.37;;;;;;;0.39;59.44;101206.95;4111694;86;20979;-83
2022/03/22 07:05:58;;;;;;;110.20;54.10;;;;;;;3.74;56.62;101213.13;4155425;86;21042;-85
2022/03/22 07:26:16;;;;;;;100.00;49.98;;;;;;;4.96;54.96;101203.97;4151003;86;21029;-84
2022/03/22 07:39:07;;;;;;;96.22;48.10;;;;;;;6.01;54.15;101208.27;4149740;84;21106;-84
2022/03/22 07:45:19;;;;;;;92.17;47.62;;;;;;;6.63;53.34;101215.30;4148887;84;21058;-85
2022/03/22 07:57:40;;;;;;;73.67;40.17;;;;;;;7.87;52.24;101206.55;4148445;84;21634;-85
2022/03/22 08:03:52;;;;;;;75.37;39.70;;;;;;;8.47;51.27;101204.47;4146070;84;21090;-83
2022/03/22 08:09:53;;;;;;;79.58;41.08;;;;;;;9.04;49.57;101198.16;4146836;84;21074;-85
2022/03/22 08:16:02;;;;;;;74.37;41.05;;;;;;;9.55;47.95;101192.99;4147494;84;21002;-86
2022/03/22 08:22:05;;;;;;;81.80;43.35;;;;;;;9.98;46.25;101192.56;4147197;84;21090;-85
2022/03/22 08:28:20;;;;;;;80.32;41.65;;;;;;;10.46;47.01;101188.42;4145488;84;21079;-85
2022/03/22 08:34:21;;;;;;;69.75;38.92;;;;;;;11.04;46.19;101188.12;4151650;84;21052;-85
2022/03/22 08:40:42;;;;;;;70.35;40.25;;;;;;;11.39;45.90;101188.86;4149358;84;21018;-86
2022/03/22 08:53:49;;;;;;;62.67;36.90;;;;;;;11.68;43.20;101187.55;4150547;86;21574;-86
2022/03/22 08:59:51;;;;;;;64.00;37.38;;;;;;;12.36;43.23;101177.56;4110091;84;21055;-88
2022/03/22 09:06:12;;;;;;;58.42;32.88;;;;;;;12.88;41.48;101167.50;4106002;85;21071;-87
2022/03/22 09:12:13;;;;;;;58.60;33.85;;;;;;;13.57;40.93;101169.20;4108296;85;21015;-87
2022/03/22 09:18:14;;;;;;;56.68;32.15;;;;;;;14.40;38.54;101157.12;4108217;85;22185;-87
2022/03/22 09:24:15;;;;;;;50.08;29.63;;;;;;;15.11;38.61;101154.42;4105817;85;21039;-87
2022/03/22 09:30:18;;;;;;;43.98;28.23;;;;;;;15.71;37.14;101154.03;4103839;85;21087;-87
2022/03/22 09:36:19;;;;;;;41.55;26.70;;;;;;;16.48;37.24;101148.14;4105958;85;21042;-88
2022/03/22 09:42:21;;;;;;;41.58;27.40;;;;;;;17.37;36.67;101137.04;4105534;85;21102;-87
2022/03/22 09:48:22;;;;;;;46.75;27.13;;;;;;;18.30;34.24;101128.44;4105487;85;21555;-88
2022/03/22 09:54:25;;;;;;;35.98;24.65;;;;;;;18.76;34.32;101125.70;4106578;85;22084;-88
2022/03/22 10:00:26;;;;;;;43.75;25.20;;;;;;;19.06;32.29;101118.09;4104323;84;21598;-88
2022/03/22 10:06:33;;;;;;;39.20;25.15;;;;;;;19.04;30.74;101113.52;4104563;85;21073;-88
2022/03/22 10:12:37;;;;;;;38.50;26.15;;;;;;;19.32;29.99;101117.19;4105477;85;22004;-87
2022/03/22 10:18:39;;;;;;;39.78;26.60;;;;;;;19.57;31.43;101105.13;4104152;85;21090;-88
2022/03/22 10:24:47;;;;;;;42.67;29.18;;;;;;;19.92;29.38;101103.97;4105861;85;21055;-88
2022/03/22 10:30:54;;;;;;;41.00;26.35;;;;;;;20.09;29.08;101095.55;4108217;85;21027;-89
2022/03/22 10:36:55;;;;;;;42.85;28.20;;;;;;;20.29;28.82;101096.88;4106006;85;21007;-88
2022/03/22 10:43:11;;;;;;;42.38;29.18;;;;;;;20.68;28.72;101092.86;4104326;85;21452;-88
2022/03/22 10:49:16;;;;;;;39.95;29.45;;;;;;;20.74;26.88;101094.06;4108033;85;21041;-88
2022/03/22 10:55:21;;;;;;;40.92;29.23;;;;;;;20.54;26.33;101091.42;4109229;84;21659;-89
2022/03/22 11:01:23;;;;;;;41.00;28.98;;;;;;;20.54;25.70;101094.20;4149529;84;21941;-87
2022/03/22 11:07:25;;;;;;;42.70;30.75;;;;;;;20.82;26.53;101083.96;4147972;84;21042;-88
2022/03/22 11:13:27;;;;;;;40.83;30.35;;;;;;;20.85;25.64;101065.66;4134797;84;21062;-88
2022/03/22 11:19:29;;;;;;;40.30;27.30;;;;;;;21.10;25.76;101069.31;4146916;84;22212;-86
2022/03/22 11:25:35;;;;;;;44.45;28.67;;;;;;;21.17;24.79;101050.63;4149193;84;21038;-88
2022/03/22 11:31:39;;;;;;;44.67;25.73;;;;;;;21.24;25.25;101045.06;4148109;84;21150;-87
2022/03/22 11:37:41;;;;;;;48.85;28.83;;;;;;;21.30;25.18;101040.69;4147352;84;21109;-88
2022/03/22 11:43:43;;;;;;;30.80;22.95;;;;;;;21.32;23.79;101013.23;4146421;84;21351;-88
2022/03/22 11:50:00;;;;;;;35.13;24.98;;;;;;;21.12;23.63;101025.98;4144925;84;21046;-88
2022/03/22 11:56:01;;;;;;;32.90;23.22;;;;;;;20.48;24.68;101022.85;4132847;84;21079;-88
2022/03/22 12:02:05;;;;;;;36.93;24.05;;;;;;;19.98;24.20;101016.86;4104367;85;21555;-88
2022/03/22 12:08:10;;;;;;;34.78;23.40;;;;;;;19.55;24.30;101004.70;4104978;85;21051;-88
2022/03/22 12:14:27;;;;;;;34.80;24.07;;;;;;;19.32;24.53;101001.37;4105281;85;21067;-87
2022/03/22 12:20:28;;;;;;;37.28;23.83;;;;;;;19.23;24.50;100991.12;4102952;86;22051;-88
2022/03/22 12:26:29;;;;;;;40.08;24.55;;;;;;;18.98;24.81;100986.58;4103785;85;21932;-88
2022/03/22 12:32:31;;;;;;;32.75;22.27;;;;;;;18.97;24.49;100972.47;4103896;85;21039;-87
2022/03/22 12:38:55;;;;;;;33.48;20.65;;;;;;;18.90;24.67;100969.66;4105896;85;21979;-88
2022/03/22 12:45:19;;;;;;;28.73;19.45;;;;;;;18.47;24.40;100949.84;4097997;85;22039;-87
2022/03/22 12:51:23;;;;;;;33.95;18.70;;;;;;;18.53;24.73;100952.47;4105410;84;21090;-87
2022/03/22 12:57:24;;;;;;;26.05;17.80;;;;;;;18.66;24.90;100946.86;4118925;85;21956;-88
2022/03/22 13:03:28;;;;;;;32.58;18.45;;;;;;;18.81;25.11;100939.44;4147820;84;21054;-88
2022/03/22 13:38:07;;;;;;;18.82;11.25;;;;;;;18.49;24.87;100900.35;4605525;74;23351;-88
2022/03/22 13:44:11;;;;;;;18.20;11.95;;;;;;;18.48;25.09;100895.96;4522172;77;21033;-87
2022/03/22 13:50:16;;;;;;;17.57;11.83;;;;;;;18.44;24.82;100888.22;4524494;77;21629;-88
2022/03/22 13:56:24;;;;;;;19.60;10.78;;;;;;;18.44;24.75;100890.18;4515646;77;21953;-88
2022/03/22 14:02:26;;;;;;;20.23;10.05;;;;;;;18.40;24.83;100885.98;4519588;77;21045;-88
2022/03/22 14:08:28;;;;;;;19.73;10.72;;;;;;;18.25;24.97;100875.11;4521721;77;21032;-88
2022/03/22 14:14:29;;;;;;;14.35;9.63;;;;;;;18.32;24.81;100869.64;4523218;77;21033;-85
2022/03/22 14:20:31;;;;;;;18.25;10.45;;;;;;;18.36;24.88;100867.11;4515316;77;21027;-85
2022/03/22 14:26:32;;;;;;;15.68;9.10;;;;;;;18.61;24.59;100854.28;4528899;77;21514;-87
2022/03/22 14:32:34;;;;;;;11.83;9.15;;;;;;;18.75;24.65;100861.91;4530701;77;21040;-85
2022/03/22 14:38:35;;;;;;;14.45;8.65;;;;;;;18.78;24.67;100846.49;4537976;77;21594;-86
2022/03/22 14:44:37;;;;;;;15.03;7.85;;;;;;;18.68;24.20;100851.55;4526421;77;21873;-86
2022/03/22 14:50:39;;;;;;;12.75;8.30;;;;;;;18.58;24.36;100844.55;4519348;77;21076;-85
2022/03/22 15:03:00;;;;;;;20.82;9.30;;;;;;;18.44;24.11;100828.59;4534466;77;20958;-84
2022/03/22 15:09:05;;;;;;;14.13;8.63;;;;;;;18.17;24.50;100822.97;4508916;77;21064;-85
2022/03/22 15:15:07;;;;;;;17.15;9.55;;;;;;;18.04;24.27;100819.48;4520859;77;21544;-85
2022/03/22 15:21:09;;;;;;;18.42;10.00;;;;;;;17.89;24.34;100813.00;4524209;77;21009;-86
2022/03/22 15:27:11;;;;;;;17.15;10.05;;;;;;;17.72;24.39;100815.56;4526854;77;21064;-86
2022/03/22 15:33:13;;;;;;;20.00;10.45;;;;;;;17.56;24.62;100808.06;4529258;77;21032;-86
2022/03/22 15:39:14;;;;;;;21.95;11.30;;;;;;;17.37;24.68;100805.45;4479038;77;21010;-86
2022/03/22 15:45:16;;;;;;;24.18;12.25;;;;;;;17.15;24.67;100797.44;4505114;77;21992;-85
2022/03/22 15:51:17;;;;;;;18.55;11.57;;;;;;;16.90;24.82;100802.65;4505986;77;20978;-86
2022/03/22 15:57:20;;;;;;;20.23;13.10;;;;;;;16.67;24.98;100795.58;4513079;77;21020;-87
2022/03/22 16:03:24;;;;;;;28.30;13.72;;;;;;;16.45;25.17;100796.42;4509855;77;21104;-84
2022/03/22 16:09:27;;;;;;;25.37;14.10;;;;;;;16.28;25.34;100795.52;4509062;77;20959;-86
2022/03/22 16:15:28;;;;;;;28.50;14.28;;;;;;;16.03;25.53;100793.73;4504373;77;21503;-85
2022/03/22 16:21:30;;;;;;;24.47;14.47;;;;;;;15.75;25.81;100794.59;4499138;77;20966;-85
2022/03/22 16:27:31;;;;;;;27.13;14.10;;;;;;;15.45;26.02;100791.66;4507123;77;21065;-86
2022/03/22 16:39:53;;;;;;;20.60;12.80;;;;;;;14.92;26.42;100793.86;4462504;78;20962;-85
2022/03/22 16:45:55;;;;;;;26.27;13.25;;;;;;;14.63;26.59;100796.30;4462860;78;21001;-86
2022/03/22 16:51:58;;;;;;;35.83;15.58;;;;;;;14.31;26.89;100796.14;4455285;78;20966;-85
2022/03/22 16:57:59;;;;;;;34.25;19.07;;;;;;;13.98;27.23;100790.36;4459180;78;21013;-87
2022/03/22 17:04:07;;;;;;;26.82;15.28;;;;;;;13.63;27.66;100805.14;4460592;79;20978;-86
2022/03/22 17:10:15;;;;;;;29.15;14.87;;;;;;;13.23;28.07;100806.59;4452710;78;21008;-85
2022/03/22 17:16:35;;;;;;;30.52;14.87;;;;;;;12.69;28.58;100802.54;4459466;78;21001;-85
2022/03/22 17:22:38;;;;;;;35.63;17.70;;;;;;;12.23;29.17;100811.27;4469007;78;20990;-85
2022/03/22 17:28:40;;;;;;;41.77;21.50;;;;;;;11.63;29.92;100807.02;4467388;79;21068;-85
2022/03/22 17:42:28;;;;;;;38.67;17.35;;;;;;;10.81;31.16;100814.13;4201668;83;20985;-85
2022/03/22 17:48:31;;;;;;;43.20;24.43;;;;;;;10.33;31.67;100815.14;4201084;83;21042;-86
2022/03/22 17:54:32;;;;;;;60.38;32.88;;;;;;;10.03;32.29;100823.03;4203533;83;21097;-85
2022/03/22 18:00:37;;;;;;;52.03;26.93;;;;;;;9.76;32.70;100815.77;4329624;78;21041;-84
2022/03/22 18:07:02;;;;;;;65.35;32.23;;;;;;;9.51;33.08;100818.80;4464695;78;20983;-85
2022/03/22 18:20:29;;;;;;;91.15;43.25;;;;;;;8.86;34.04;100825.00;4445496;78;20958;-85
2022/03/22 18:34:11;;;;;;;103.07;48.73;;;;;;;8.14;35.10;100830.08;4446824;78;20939;-84
2022/03/22 18:40:12;;;;;;;100.62;44.10;;;;;;;7.66;35.65;100829.97;4408689;78;21902;-84
2022/03/22 18:46:24;;;;;;;102.75;49.55;;;;;;;7.37;36.20;100837.80;4325755;80;21035;-84
2022/03/22 19:05:57;;;;;;;109.70;51.65;;;;;;;6.50;38.11;100841.92;4313662;80;21619;-84
2022/03/22 19:12:07;;;;;;;118.25;53.20;;;;;;;6.22;38.21;100836.23;4329565;80;21376;-84
2022/03/22 19:18:08;;;;;;;97.42;47.58;;;;;;;5.95;38.78;100845.17;4310187;80;20992;-84
2022/03/22 19:24:10;;;;;;;121.70;54.70;;;;;;;5.45;39.40;100847.37;4312354;80;20955;-84
2022/03/22 19:30:11;;;;;;;117.55;51.75;;;;;;;5.29;39.73;100848.73;4321759;80;21577;-83
2022/03/22 19:36:31;;;;;;;113.80;50.48;;;;;;;5.14;40.20;100851.66;4304741;82;20964;-84
2022/03/22 19:49:38;;;;;;;98.42;46.20;;;;;;;4.65;41.13;100847.22;4191395;80;9999621;-84
2022/03/22 19:55:53;;;;;;;104.35;47.10;;;;;;;4.47;41.56;100852.05;4395688;77;20963;-84
2022/03/22 20:02:25;;;;;;;93.95;43.68;;;;;;;3.99;42.02;100847.19;4317122;80;20998;-83
2022/03/22 20:08:26;;;;;;;124.45;52.55;;;;;;;3.94;43.20;100849.94;4328058;80;20964;-83
2022/03/22 20:14:32;;;;;;;123.10;56.77;;;;;;;3.92;42.69;100852.12;4323589;80;21079;-83
2022/03/22 20:20:39;;;;;;;114.05;53.87;;;;;;;3.60;43.23;100853.25;4319735;80;21030;-83
2022/03/22 20:26:41;;;;;;;102.45;49.85;;;;;;;3.44;43.87;100851.75;4436632;79;21003;-84
2022/03/22 20:32:44;;;;;;;122.07;55.45;;;;;;;3.40;44.49;100851.25;4309683;81;21006;-83
2022/03/22 20:38:47;;;;;;;123.40;56.08;;;;;;;3.32;44.69;100849.14;4331847;80;21058;-83
2022/03/22 20:44:48;;;;;;;135.35;59.88;;;;;;;3.00;45.18;100849.09;4237339;81;22114;-83
2022/03/22 20:50:54;;;;;;;129.97;61.13;;;;;;;2.85;45.40;100842.41;4118527;82;9999628;-83
2022/03/22 21:03:22;;;;;;;131.05;57.80;;;;;;;2.71;47.21;100837.92;4175585;83;21021;-83
2022/03/22 21:09:23;;;;;;;113.62;51.48;;;;;;;2.57;47.60;100831.50;4331169;80;21414;-84
2022/03/22 21:15:24;;;;;;;129.97;57.62;;;;;;;2.69;48.14;100832.76;4322922;80;21528;-83
2022/03/22 21:21:29;;;;;;;128.53;58.92;;;;;;;2.40;47.60;100832.36;4314528;80;21020;-84
2022/03/22 21:27:31;;;;;;;141.57;63.63;;;;;;;2.22;47.24;100835.69;4319162;80;21120;-83
2022/03/22 21:33:35;;;;;;;118.85;55.05;;;;;;;2.03;48.16;100830.61;4315384;80;21119;-83
2022/03/22 21:39:43;;;;;;;147.55;62.93;;;;;;;1.90;49.25;100827.13;4289244;78;21075;-83
2022/03/22 21:45:47;;;;;;;146.10;61.17;;;;;;;1.72;49.01;100819.09;4446179;78;21640;-83
2022/03/22 21:51:49;;;;;;;130.50;55.17;;;;;;;1.40;49.54;100815.87;4373665;79;21003;-83
2022/03/22 21:57:52;;;;;;;128.30;58.80;;;;;;;1.35;49.93;100818.56;4426095;77;21368;-83
2022/03/22 22:11:16;;;;;;;147.00;63.23;;;;;;;1.02;51.13;100810.99;4473630;77;21049;-83
2022/03/22 22:17:18;;;;;;;154.30;64.75;;;;;;;1.13;51.54;100806.70;4483745;77;21530;-83
2022/03/22 22:23:19;;;;;;;153.35;63.10;;;;;;;0.87;50.98;100801.55;4475686;77;21519;-82
2022/03/22 22:29:21;;;;;;;192.45;73.72;;;;;;;0.80;52.29;100805.06;4482817;77;22026;-82
2022/03/22 22:35:22;;;;;;;181.02;79.75;;;;;;;0.73;52.45;100799.92;4461971;77;21111;-83
2022/03/22 22:58:05;;;;;;;137.20;60.05;;;;;;;-0.11;54.71;100783.74;4754698;73;23159;-84
2022/03/22 23:04:11;;;;;;;151.05;66.05;;;;;;;-0.28;52.22;100786.59;4641838;75;21020;-84
2022/03/22 23:10:17;;;;;;;118.08;52.17;;;;;;;-0.49;53.96;100784.05;4643814;75;21011;-83
2022/03/22 23:16:16;;;;;;;151.00;70.07;;;;;;;-0.55;55.02;100784.53;4639331;75;21889;-83
2022/03/22 23:22:17;;;;;;;143.93;62.77;;;;;;;-0.66;55.25;100778.81;4635685;75;21532;-83
2022/03/22 23:28:22;;;;;;;157.07;69.17;;;;;;;-0.62;56.17;100785.31;4631999;75;21685;-83
2022/03/22 23:34:32;;;;;;;170.70;74.30;;;;;;;-0.74;55.62;100781.19;4615914;75;21050;-83
2022/03/22 23:40:35;;;;;;;171.10;75.50;;;;;;;-0.83;56.42;100782.19;4639067;75;21492;-85
2022/03/22 23:46:38;;;;;;;174.33;76.27;;;;;;;-0.85;55.55;100774.11;4638909;75;20952;-85
2022/03/22 23:52:40;;;;;;;173.20;72.53;;;;;;;-0.85;56.40;100764.70;4620258;75;22589;-84
2022/03/22 23:58:43;;;;;;;134.50;60.73;;;;;;;-1.09;55.78;100762.89;4611924;75;20949;-83
